createdAt,value
2022-11-17T00:00:42.176Z,101901.88
2022-11-17T00:03:18.135Z,101888.78
2022-11-17T00:05:45.725Z,101885.25
2022-11-17T00:08:13.616Z,101889.44
2022-11-17T00:10:41.425Z,101890.25
2022-11-17T00:13:29.369Z,101891.03
2022-11-17T00:15:56.824Z,101885.88
2022-11-17T00:18:42.931Z,101882.31
2022-11-17T00:21:19.402Z,101885.78
2022-11-17T00:23:48.201Z,101887.66
2022-11-17T00:26:18.178Z,101892.69
2022-11-17T00:28:46.210Z,101878.91
2022-11-17T00:31:33.049Z,101892.88
2022-11-17T00:34:07.145Z,101881.44
2022-11-17T00:36:41.598Z,101885.03
2022-11-17T00:39:10.757Z,101877.34
2022-11-17T00:41:38.521Z,101871.31
2022-11-17T00:44:07.018Z,101867.81
2022-11-17T00:46:35.697Z,101866.09
2022-11-17T00:49:04.403Z,101876.59
2022-11-17T00:51:32.122Z,101873.06
2022-11-17T00:54:00.015Z,101878.19
2022-11-17T00:56:28.000Z,101872.88
2022-11-17T00:58:55.846Z,101876.44
2022-11-17T01:01:24.263Z,101872.19
2022-11-17T01:04:02.998Z,101867.91
2022-11-17T01:06:32.414Z,101862.66
2022-11-17T01:09:05.510Z,101867.88
2022-11-17T01:11:33.816Z,101864.47
2022-11-17T01:14:02.136Z,101865.31
2022-11-17T01:16:31.838Z,101860.88
2022-11-17T01:19:01.565Z,101861.00
2022-11-17T01:21:31.216Z,101859.25
2022-11-17T01:24:01.030Z,101859.38
2022-11-17T01:26:34.738Z,101851.50
2022-11-17T01:29:03.854Z,101841.97
2022-11-17T01:31:34.487Z,101841.84
2022-11-17T01:34:02.117Z,101840.00
2022-11-17T01:36:52.248Z,101839.88
2022-11-17T01:39:20.483Z,101843.41
2022-11-17T01:41:48.411Z,101845.84
2022-11-17T01:44:49.161Z,101849.34
2022-11-17T01:47:34.223Z,101852.75
2022-11-17T01:50:21.944Z,101850.22
2022-11-17T01:52:51.945Z,101843.25
2022-11-17T01:55:22.400Z,101847.53
2022-11-17T01:57:58.611Z,101840.53
2022-11-17T02:00:27.530Z,101840.63
2022-11-17T02:02:56.003Z,101839.81
2022-11-17T02:05:51.910Z,101833.94
2022-11-17T02:08:22.372Z,101835.56
2022-11-17T02:10:52.197Z,101838.09
2022-11-17T02:13:21.833Z,101832.25
2022-11-17T02:15:49.380Z,101832.25
2022-11-17T02:18:17.736Z,101829.72
2022-11-17T02:20:45.474Z,101833.28
2022-11-17T02:23:31.293Z,101835.88
2022-11-17T02:26:10.939Z,101833.34
2022-11-17T02:28:50.468Z,101817.59
2022-11-17T02:31:50.047Z,101821.16
2022-11-17T02:34:47.486Z,101818.44
2022-11-17T02:37:32.968Z,101816.66
2022-11-17T02:40:06.532Z,101816.72
2022-11-17T02:43:00.437Z,101818.22
2022-11-17T02:45:37.270Z,101819.25
2022-11-17T02:48:11.856Z,101818.22
2022-11-17T02:50:41.892Z,101815.69
2022-11-17T02:53:10.146Z,101806.09
2022-11-17T02:55:38.077Z,101807.94
2022-11-17T02:58:12.005Z,101807.13
2022-11-17T03:01:08.189Z,101798.75
2022-11-17T03:03:47.544Z,101795.41
2022-11-17T03:06:51.760Z,101793.75
2022-11-17T03:09:36.755Z,101794.53
2022-11-17T03:12:22.135Z,101792.78
2022-11-17T03:15:03.608Z,101791.84
2022-11-17T03:17:41.353Z,101795.28
2022-11-17T03:20:16.372Z,101794.44
2022-11-17T03:22:55.126Z,101797.88
2022-11-17T03:25:27.097Z,101796.97
2022-11-17T03:27:58.754Z,101790.75
2022-11-17T03:30:29.945Z,101787.34
2022-11-17T03:33:07.016Z,101789.06
2022-11-17T03:35:39.552Z,101780.38
2022-11-17T03:38:14.750Z,101776.88
2022-11-17T03:40:46.951Z,101779.50
2022-11-17T03:43:18.907Z,101782.09
2022-11-17T03:45:53.009Z,101785.66
2022-11-17T03:48:34.097Z,101790.91
2022-11-17T03:51:15.739Z,101780.44
2022-11-17T03:53:44.430Z,101777.91
2022-11-17T03:56:25.010Z,101770.16
2022-11-17T03:59:02.716Z,101779.03
2022-11-17T04:01:33.557Z,101777.34
2022-11-17T04:04:01.373Z,101777.44
2022-11-17T04:06:29.173Z,101776.56
2022-11-17T04:08:56.842Z,101780.00
2022-11-17T04:11:42.732Z,101777.34
2022-11-17T04:14:28.276Z,101769.63
2022-11-17T04:16:56.024Z,101767.88
2022-11-17T04:19:23.779Z,101762.78
2022-11-17T04:21:51.548Z,101761.06
2022-11-17T04:24:19.004Z,101763.66
2022-11-17T04:27:05.456Z,101764.47
2022-11-17T04:29:34.265Z,101762.66
2022-11-17T04:32:01.713Z,101763.44
2022-11-17T04:34:29.453Z,101758.28
2022-11-17T04:36:57.122Z,101749.66
2022-11-17T04:39:24.604Z,101749.03
2022-11-17T04:41:57.289Z,101752.59
2022-11-17T04:44:27.497Z,101746.59
2022-11-17T04:46:56.587Z,101745.75
2022-11-17T04:49:25.824Z,101754.41
2022-11-17T04:51:54.043Z,101755.22
2022-11-17T04:54:24.711Z,101751.34
2022-11-17T04:56:53.606Z,101758.28
2022-11-17T04:59:21.844Z,101754.75
2022-11-17T05:01:50.030Z,101751.34
2022-11-17T05:04:39.778Z,101750.50
2022-11-17T05:07:08.322Z,101754.88
2022-11-17T05:09:36.473Z,101738.41
2022-11-17T05:12:22.936Z,101740.09
2022-11-17T05:14:50.613Z,101736.84
2022-11-17T05:17:18.243Z,101731.69
2022-11-17T05:19:47.345Z,101741.91
2022-11-17T05:22:40.233Z,101740.88
2022-11-17T05:25:09.209Z,101730.34
2022-11-17T05:27:37.583Z,101728.59
2022-11-17T05:30:07.430Z,101727.63
2022-11-17T05:32:35.350Z,101724.22
2022-11-17T05:35:03.250Z,101719.91
2022-11-17T05:37:31.118Z,101716.53
2022-11-17T05:39:58.792Z,101726.22
2022-11-17T05:42:26.371Z,101710.63
2022-11-17T05:44:53.931Z,101715.00
2022-11-17T05:47:21.668Z,101712.53
2022-11-17T05:49:49.427Z,101708.97
2022-11-17T05:52:17.161Z,101710.72
2022-11-17T05:54:44.907Z,101709.81
2022-11-17T05:57:16.668Z,101703.69
2022-11-17T05:59:47.119Z,101701.13
2022-11-17T06:02:25.158Z,101696.84
2022-11-17T06:04:52.974Z,101697.81
2022-11-17T06:07:20.839Z,101698.75
2022-11-17T06:09:49.866Z,101696.88
2022-11-17T06:12:17.558Z,101691.63
2022-11-17T06:14:45.059Z,101691.41
2022-11-17T06:17:22.869Z,101692.16
2022-11-17T06:20:12.121Z,101686.88
2022-11-17T06:22:44.046Z,101684.31
2022-11-17T06:25:15.721Z,101686.94
2022-11-17T06:27:43.680Z,101682.34
2022-11-17T06:30:11.855Z,101681.47
2022-11-17T06:32:43.724Z,101674.44
2022-11-17T06:35:13.582Z,101689.13
2022-11-17T06:37:41.051Z,101692.53
2022-11-17T06:40:10.124Z,101689.81
2022-11-17T06:42:57.776Z,101696.72
2022-11-17T06:45:25.368Z,101699.41
2022-11-17T06:47:54.622Z,101696.78
2022-11-17T06:50:22.184Z,101701.09
2022-11-17T06:52:49.719Z,101701.94
2022-11-17T06:55:17.398Z,101707.09
2022-11-17T06:57:50.317Z,101709.72
2022-11-17T07:00:20.907Z,101701.88
2022-11-17T07:02:48.307Z,101709.81
2022-11-17T07:05:15.801Z,101701.19
2022-11-17T07:07:43.667Z,101701.25
2022-11-17T07:10:11.524Z,101698.78
2022-11-17T07:12:39.224Z,101696.63
2022-11-17T07:15:07.127Z,101704.53
2022-11-17T07:17:34.675Z,101704.56
2022-11-17T07:20:02.090Z,101701.97
2022-11-17T07:22:29.959Z,101695.84
2022-11-17T07:24:57.728Z,101694.09
2022-11-17T07:27:25.176Z,101697.56
2022-11-17T07:29:52.995Z,101697.56
2022-11-17T07:32:20.495Z,101703.53
2022-11-17T07:34:47.975Z,101702.44
2022-11-17T07:37:15.696Z,101707.78
2022-11-17T07:39:43.538Z,101700.00
2022-11-17T07:42:11.017Z,101695.69
2022-11-17T07:44:38.786Z,101700.78
2022-11-17T07:47:06.240Z,101698.19
2022-11-17T07:49:34.196Z,101694.66
2022-11-17T07:52:02.085Z,101702.50
2022-11-17T07:54:29.507Z,101692.78
2022-11-17T07:56:57.171Z,101693.66
2022-11-17T07:59:24.978Z,101700.72
2022-11-17T08:01:52.755Z,101695.41
2022-11-17T08:04:20.290Z,101690.94
2022-11-17T08:06:47.954Z,101700.56
2022-11-17T08:09:16.420Z,101690.06
2022-11-17T08:11:44.172Z,101702.22
2022-11-17T08:14:11.682Z,101699.47
2022-11-17T08:16:39.155Z,101700.19
2022-11-17T08:19:06.836Z,101701.13
2022-11-17T08:21:36.859Z,101690.75
2022-11-17T08:24:04.623Z,101689.75
2022-11-17T08:26:32.025Z,101683.53
2022-11-17T08:29:01.821Z,101680.19
2022-11-17T08:31:29.333Z,101680.88
2022-11-17T08:33:56.785Z,101671.16
2022-11-17T08:36:24.413Z,101674.56
2022-11-17T08:38:51.862Z,101683.16
2022-11-17T08:41:19.891Z,101678.69
2022-11-17T08:43:47.285Z,101676.66
2022-11-17T08:46:15.028Z,101675.59
2022-11-17T08:48:42.745Z,101668.75
2022-11-17T08:51:14.278Z,101670.38
2022-11-17T08:53:41.915Z,101671.13
2022-11-17T08:56:11.968Z,101666.69
2022-11-17T08:58:44.811Z,101669.16
2022-11-17T09:01:18.484Z,101658.63
2022-11-17T09:03:47.414Z,101661.22
2022-11-17T09:06:16.806Z,101658.59
2022-11-17T09:08:46.675Z,101655.50
2022-11-17T09:11:16.631Z,101651.66
2022-11-17T09:13:45.882Z,101662.00
2022-11-17T09:16:14.599Z,101660.47
2022-11-17T09:18:42.415Z,101655.22
2022-11-17T09:21:13.343Z,101654.28
2022-11-17T09:23:41.372Z,101645.47
2022-11-17T09:26:12.186Z,101652.53
2022-11-17T09:28:40.404Z,101653.47
2022-11-17T09:31:13.856Z,101652.72
2022-11-17T09:33:42.481Z,101658.13
2022-11-17T09:36:11.023Z,101651.19
2022-11-17T09:38:39.394Z,101654.84
2022-11-17T09:41:16.235Z,101663.50
2022-11-17T09:43:50.932Z,101654.84
2022-11-17T09:46:27.641Z,101642.75
2022-11-17T09:49:20.404Z,101642.47
2022-11-17T09:51:49.984Z,101646.34
2022-11-17T09:54:26.472Z,101653.50
2022-11-17T09:56:57.934Z,101651.56
2022-11-17T09:59:28.711Z,101651.09
2022-11-17T10:01:56.481Z,101649.59
2022-11-17T10:04:28.802Z,101647.91
2022-11-17T10:06:57.749Z,101641.06
2022-11-17T10:09:36.763Z,101643.81
2022-11-17T10:12:17.642Z,101635.66
2022-11-17T10:14:46.662Z,101635.41
2022-11-17T10:17:14.241Z,101636.25
2022-11-17T10:19:43.847Z,101631.31
2022-11-17T10:22:20.959Z,101631.22
2022-11-17T10:24:58.665Z,101631.00
2022-11-17T10:27:34.325Z,101630.16
2022-11-17T10:30:20.359Z,101633.56
2022-11-17T10:32:50.617Z,101629.19
2022-11-17T10:35:23.965Z,101625.47
2022-11-17T10:37:52.868Z,101625.38
2022-11-17T10:40:25.307Z,101620.03
2022-11-17T10:42:57.671Z,101620.03
2022-11-17T10:45:25.663Z,101625.34
2022-11-17T10:48:08.751Z,101627.13
2022-11-17T10:50:36.888Z,101621.91
2022-11-17T10:53:46.002Z,101628.56
2022-11-17T10:56:21.799Z,101623.50
2022-11-17T10:59:08.342Z,101634.69
2022-11-17T11:01:49.793Z,101634.00
2022-11-17T11:04:34.952Z,101639.34
2022-11-17T11:07:20.541Z,101637.59
2022-11-17T11:10:06.706Z,101640.50
2022-11-17T11:12:54.736Z,101633.44
2022-11-17T11:15:24.705Z,101626.25
2022-11-17T11:17:52.589Z,101630.22
2022-11-17T11:20:44.269Z,101634.56
2022-11-17T11:23:29.902Z,101632.00
2022-11-17T11:26:11.214Z,101623.53
2022-11-17T11:28:45.627Z,101622.66
2022-11-17T11:31:52.164Z,101617.63
2022-11-17T11:34:41.130Z,101623.41
2022-11-17T11:37:10.190Z,101616.97
2022-11-17T11:39:55.763Z,101620.50
2022-11-17T11:42:47.401Z,101614.41
2022-11-17T11:45:31.403Z,101615.53
2022-11-17T11:48:08.358Z,101627.66
2022-11-17T11:50:51.886Z,101625.53
2022-11-17T11:53:48.512Z,101628.47
2022-11-17T11:56:26.616Z,101629.28
2022-11-17T11:59:02.473Z,101632.00
2022-11-17T12:01:39.448Z,101628.53
2022-11-17T12:04:38.102Z,101627.66
2022-11-17T12:07:32.536Z,101621.56
2022-11-17T12:10:08.166Z,101620.94
2022-11-17T12:12:38.797Z,101615.38
2022-11-17T12:15:18.279Z,101614.38
2022-11-17T12:18:00.781Z,101620.50
2022-11-17T12:20:32.019Z,101617.97
2022-11-17T12:23:18.171Z,101628.47
2022-11-17T12:25:54.212Z,101623.34
2022-11-17T12:28:28.499Z,101620.72
2022-11-17T12:31:09.462Z,101624.16
2022-11-17T12:34:09.541Z,101615.47
2022-11-17T12:36:37.515Z,101617.19
2022-11-17T12:39:09.431Z,101608.38
2022-11-17T12:41:48.688Z,101618.09
2022-11-17T12:44:38.410Z,101600.63
2022-11-17T12:47:40.061Z,101607.06
2022-11-17T12:50:32.545Z,101594.00
2022-11-17T12:53:09.569Z,101594.75
2022-11-17T12:56:02.232Z,101604.25
2022-11-17T12:58:46.044Z,101596.50
2022-11-17T13:01:41.580Z,101601.66
2022-11-17T13:04:15.937Z,101605.19
2022-11-17T13:07:05.297Z,101608.06
2022-11-17T13:09:36.396Z,101613.31
2022-11-17T13:12:08.045Z,101611.78
2022-11-17T13:14:50.981Z,101597.13
2022-11-17T13:17:20.665Z,101596.28
2022-11-17T13:19:48.233Z,101598.09
2022-11-17T13:22:18.678Z,101593.66
2022-11-17T13:24:48.587Z,101591.22
2022-11-17T13:27:26.148Z,101599.94
2022-11-17T13:30:12.972Z,101591.03
2022-11-17T13:32:42.152Z,101597.88
2022-11-17T13:35:23.266Z,101605.75
2022-11-17T13:38:23.947Z,101600.59
2022-11-17T13:40:53.570Z,101603.28
2022-11-17T13:43:23.246Z,101596.19
2022-11-17T13:45:53.240Z,101626.03
2022-11-17T13:48:42.576Z,101607.84
2022-11-17T13:51:20.333Z,101615.09
2022-11-17T13:53:55.530Z,101620.28
2022-11-17T13:56:24.797Z,101618.50
2022-11-17T13:58:53.606Z,101612.59
2022-11-17T14:01:24.151Z,101611.75
2022-11-17T14:03:52.561Z,101614.34
2022-11-17T14:06:20.312Z,101617.72
2022-11-17T14:09:04.195Z,101620.34
2022-11-17T14:11:32.077Z,101616.94
2022-11-17T14:14:01.271Z,101623.81
2022-11-17T14:16:34.698Z,101623.75
2022-11-17T14:19:25.168Z,101614.34
2022-11-17T14:22:03.784Z,101609.28
2022-11-17T14:24:32.834Z,101616.38
2022-11-17T14:27:00.379Z,101619.97
2022-11-17T14:29:28.810Z,101613.19
2022-11-17T14:31:57.094Z,101615.81
2022-11-17T14:34:24.713Z,101619.13
2022-11-17T14:36:54.981Z,101619.78
2022-11-17T14:39:22.884Z,101636.06
2022-11-17T14:41:51.141Z,101638.69
2022-11-17T14:44:18.627Z,101632.00
2022-11-17T14:46:46.472Z,101647.22
2022-11-17T14:49:14.552Z,101643.31
2022-11-17T14:51:42.717Z,101645.19
2022-11-17T14:54:10.545Z,101636.84
2022-11-17T14:56:38.324Z,101637.41
2022-11-17T14:59:06.138Z,101635.13
2022-11-17T15:01:34.765Z,101640.41
2022-11-17T15:04:27.336Z,101633.44
2022-11-17T15:06:52.297Z,101637.66
2022-11-17T15:09:20.666Z,101643.53
2022-11-17T15:11:48.432Z,101649.03
2022-11-17T15:14:16.424Z,101636.06
2022-11-17T15:16:44.540Z,101638.06
2022-11-17T15:19:13.214Z,101642.06
2022-11-17T15:21:41.449Z,101638.75
2022-11-17T15:24:09.469Z,101640.59
2022-11-17T15:26:37.865Z,101647.38
2022-11-17T15:29:06.111Z,101645.84
2022-11-17T15:31:33.542Z,101646.00
2022-11-17T15:34:01.312Z,101648.38
2022-11-17T15:36:29.107Z,101642.34
2022-11-17T15:38:56.519Z,101643.31
2022-11-17T15:41:25.460Z,101638.84
2022-11-17T15:43:56.035Z,101637.22
2022-11-17T15:46:23.567Z,101639.91
2022-11-17T15:48:52.575Z,101637.38
2022-11-17T15:51:22.540Z,101633.91
2022-11-17T15:53:51.887Z,101635.75
2022-11-17T15:56:21.731Z,101643.53
2022-11-17T15:58:57.888Z,101639.13
2022-11-17T16:01:44.241Z,101643.31
2022-11-17T16:04:14.757Z,101645.81
2022-11-17T16:06:44.685Z,101653.47
2022-11-17T16:09:13.580Z,101656.81
2022-11-17T16:11:41.819Z,101642.72
2022-11-17T16:14:09.428Z,101644.09
2022-11-17T16:16:38.712Z,101643.44
2022-11-17T16:19:07.372Z,101647.88
2022-11-17T16:21:34.938Z,101654.13
2022-11-17T16:24:03.341Z,101657.47
2022-11-17T16:26:31.300Z,101664.28
2022-11-17T16:29:00.923Z,101665.94
2022-11-17T16:31:31.148Z,101669.31
2022-11-17T16:34:13.352Z,101665.03
2022-11-17T16:36:42.252Z,101679.16
2022-11-17T16:39:12.536Z,101671.50
2022-11-17T16:41:42.131Z,101670.66
2022-11-17T16:44:15.247Z,101670.72
2022-11-17T16:46:44.803Z,101668.31
2022-11-17T16:49:15.953Z,101664.72
2022-11-17T16:51:48.529Z,101670.34
2022-11-17T16:54:17.977Z,101657.56
2022-11-17T16:56:46.286Z,101673.94
2022-11-17T16:59:15.169Z,101671.25
2022-11-17T17:01:42.935Z,101676.25
2022-11-17T17:04:12.262Z,101679.78
2022-11-17T17:06:42.077Z,101684.19
2022-11-17T17:09:12.166Z,101683.31
2022-11-17T17:11:40.424Z,101682.63
2022-11-17T17:14:11.959Z,101686.81
2022-11-17T17:16:39.877Z,101690.31
2022-11-17T17:19:10.257Z,101678.94
2022-11-17T17:21:39.534Z,101683.31
2022-11-17T17:24:08.777Z,101684.09
2022-11-17T17:26:37.587Z,101690.09
2022-11-17T17:29:06.029Z,101685.00
2022-11-17T17:31:36.265Z,101682.63
2022-11-17T17:34:06.244Z,101685.28
2022-11-17T17:36:36.537Z,101685.00
2022-11-17T17:39:05.600Z,101689.44
2022-11-17T17:41:39.509Z,101693.81
2022-11-17T17:44:08.357Z,101692.06
2022-11-17T17:46:38.550Z,101687.50
2022-11-17T17:49:07.191Z,101690.94
2022-11-17T17:51:44.043Z,101687.50
2022-11-17T17:54:17.970Z,101698.94
2022-11-17T17:56:46.737Z,101696.22
2022-11-17T17:59:15.916Z,101699.53
2022-11-17T18:01:46.310Z,101710.69
2022-11-17T18:04:16.235Z,101718.69
2022-11-17T18:06:48.691Z,101720.25
2022-11-17T18:09:19.473Z,101723.84
2022-11-17T18:11:50.470Z,101717.97
2022-11-17T18:14:24.484Z,101714.53
2022-11-17T18:16:53.496Z,101718.13
2022-11-17T18:19:25.744Z,101729.81
2022-11-17T18:21:56.077Z,101731.09
2022-11-17T18:24:23.896Z,101732.84
2022-11-17T18:26:51.633Z,101733.19
2022-11-17T18:29:20.287Z,101751.41
2022-11-17T18:31:49.431Z,101738.47
2022-11-17T18:34:21.331Z,101751.63
2022-11-17T18:36:53.571Z,101750.25
2022-11-17T18:39:22.084Z,101747.50
2022-11-17T18:41:50.364Z,101745.09
2022-11-17T18:44:19.664Z,101761.13
2022-11-17T18:46:47.873Z,101750.81
2022-11-17T18:49:16.088Z,101742.19
2022-11-17T18:51:44.333Z,101744.03
2022-11-17T18:54:14.155Z,101747.69
2022-11-17T18:56:42.418Z,101751.97
2022-11-17T18:59:13.063Z,101748.66
2022-11-17T19:01:42.950Z,101757.47
2022-11-17T19:04:13.659Z,101760.03
2022-11-17T19:06:42.094Z,101758.38
2022-11-17T19:09:10.871Z,101755.28
2022-11-17T19:11:39.530Z,101766.84
2022-11-17T19:14:07.678Z,101777.38
2022-11-17T19:16:41.041Z,101765.03
2022-11-17T19:19:13.599Z,101767.53
2022-11-17T19:21:42.171Z,101764.06
2022-11-17T19:24:10.128Z,101763.25
2022-11-17T19:26:37.734Z,101768.25
2022-11-17T19:29:15.655Z,101760.66
2022-11-17T19:31:46.176Z,101770.09
2022-11-17T19:34:14.608Z,101770.25
2022-11-17T19:36:42.256Z,101764.31
2022-11-17T19:39:12.015Z,101767.69
2022-11-17T19:41:39.962Z,101766.75
2022-11-17T19:44:08.848Z,101764.19
2022-11-17T19:46:37.762Z,101758.28
2022-11-17T19:49:06.439Z,101764.63
2022-11-17T19:51:38.969Z,101765.47
2022-11-17T19:54:09.139Z,101763.75
2022-11-17T19:56:38.269Z,101770.69
2022-11-17T19:59:06.291Z,101764.53
2022-11-17T20:01:34.693Z,101772.47
2022-11-17T20:04:02.565Z,101769.03
2022-11-17T20:06:37.104Z,101769.75
2022-11-17T20:09:08.473Z,101774.13
2022-11-17T20:11:36.523Z,101767.88
2022-11-17T20:14:04.845Z,101774.06
2022-11-17T20:16:32.742Z,101777.69
2022-11-17T20:19:02.102Z,101771.50
2022-11-17T20:21:31.253Z,101784.50
2022-11-17T20:23:59.378Z,101784.50
2022-11-17T20:26:30.178Z,101775.63
2022-11-17T20:29:05.357Z,101780.84
2022-11-17T20:31:35.006Z,101773.25
2022-11-17T20:34:05.372Z,101787.19
2022-11-17T20:36:34.506Z,101794.97
2022-11-17T20:39:05.645Z,101794.00
2022-11-17T20:41:33.706Z,101804.75
2022-11-17T20:44:03.150Z,101802.88
2022-11-17T20:46:31.030Z,101818.44
2022-11-17T20:48:59.186Z,101811.50
2022-11-17T20:51:27.093Z,101809.84
2022-11-17T20:53:54.762Z,101807.94
2022-11-17T20:56:22.768Z,101807.13
2022-11-17T20:58:50.717Z,101817.59
2022-11-17T21:01:21.547Z,101815.78
2022-11-17T21:03:50.109Z,101821.00
2022-11-17T21:06:18.726Z,101833.59
2022-11-17T21:08:46.813Z,101837.00
2022-11-17T21:11:38.116Z,101837.19
2022-11-17T21:14:08.082Z,101850.25
2022-11-17T21:16:38.705Z,101846.69
2022-11-17T21:19:06.770Z,58956.56
2022-11-17T21:21:35.030Z,58956.56
2022-11-17T21:24:04.038Z,58956.56
2022-11-17T21:26:31.998Z,58956.56
2022-11-17T21:29:06.176Z,58956.56
2022-11-17T21:31:35.197Z,58956.56
2022-11-17T21:34:06.280Z,58956.56
2022-11-17T21:36:35.006Z,58956.56
2022-11-17T21:39:03.093Z,58956.56
2022-11-17T21:41:35.336Z,58956.56
2022-11-17T21:44:04.006Z,58956.56
2022-11-17T21:46:33.925Z,58956.56
2022-11-17T21:49:01.846Z,58956.56
2022-11-17T21:51:35.353Z,58956.56
2022-11-17T21:54:05.927Z,58956.56
2022-11-17T21:56:36.128Z,58956.56
2022-11-17T21:59:06.474Z,58956.56
2022-11-17T22:01:35.071Z,58956.56
2022-11-17T22:04:02.964Z,58956.56
2022-11-17T22:06:31.053Z,58956.56
2022-11-17T22:08:59.177Z,58956.56
2022-11-17T22:11:38.476Z,58956.56
2022-11-17T22:14:20.155Z,58956.56
2022-11-17T22:16:51.485Z,58956.56
2022-11-17T22:19:21.654Z,58956.56
2022-11-17T22:21:51.814Z,58956.56
2022-11-17T22:24:19.774Z,58956.56
2022-11-17T22:26:48.233Z,58956.56
2022-11-17T22:29:19.499Z,58956.56
2022-11-17T22:31:48.945Z,58956.56
2022-11-17T22:34:18.156Z,58956.56
2022-11-17T22:36:45.989Z,58956.56
2022-11-17T22:39:14.159Z,58956.56
2022-11-17T22:41:41.821Z,58956.56
2022-11-17T22:44:12.856Z,58956.56
2022-11-17T22:46:40.758Z,58956.56
2022-11-17T22:49:09.558Z,58956.56
2022-11-17T22:51:57.470Z,58956.56
2022-11-17T22:54:25.046Z,58956.56
2022-11-17T22:56:52.873Z,58956.56
2022-11-17T22:59:23.578Z,58956.56
2022-11-17T23:01:51.497Z,58956.56
2022-11-17T23:04:19.587Z,58956.56
2022-11-17T23:06:47.430Z,58956.56
2022-11-17T23:09:16.055Z,58956.56
2022-11-17T23:11:44.158Z,58956.56
2022-11-17T23:14:13.593Z,58956.56
2022-11-17T23:16:41.996Z,58956.56
2022-11-17T23:19:12.649Z,58956.56
2022-11-17T23:21:41.076Z,58956.56
2022-11-17T23:24:13.041Z,58956.56
2022-11-17T23:26:41.842Z,58956.56
2022-11-17T23:29:09.510Z,58956.56
2022-11-17T23:31:37.074Z,58956.56
2022-11-17T23:34:04.538Z,58956.56
2022-11-17T23:36:31.976Z,58956.56
2022-11-17T23:38:59.505Z,58956.56
2022-11-17T23:41:27.329Z,58956.56
2022-11-17T23:43:55.094Z,58956.56
2022-11-17T23:46:25.374Z,58956.56
2022-11-17T23:48:54.541Z,58956.56
2022-11-17T23:51:22.825Z,58956.56
2022-11-17T23:53:50.505Z,58956.56
2022-11-17T23:56:21.927Z,58956.56
2022-11-17T23:58:51.253Z,58956.56
